Terminal Aerodrome Forecast
Issued by NWS

Current Version | Previous Version | Graphics & Text | Print | Product List | Glossary On
Versions: 1 2 3 4 5 6 7 8 9 10 11 12 13 14 15 16 17 18 19 20 21
108
FTUS41 KILN 232126 AAA
TAFLUK
TAF AMD
KLUK 232126Z 2321/2418 21010KT P6SM VCSH OVC025
      TEMPO 2322/2324 3SM SHRA OVC015
     FM240400 26010KT P6SM VCSH BKN015
     FM240700 21012KT P6SM VCSH BKN015
     FM241100 24010KT P6SM BKN025
     FM241600 25012G20KT P6SM FEW030 BKN040=

USA.gov is the U.S. government's official web portal to all federal, state and local government web resources and services.